SPTU

Padre Aldamiz International Airport

Puerto Maldonado, Peru
SPTU 241100Z 2412/2512 VRB02KT 9999 FEW025 TX33/2419Z TN18/2511Z TEMPO 2418/2421 BKN060
Issued Valid From Valid To
Sep-24 @ 11:00 UTC
(3 hours ago)
Sep-24 @ 12:00 UTC
(2 hours ago)
Sep-25 @ 12:00 UTC
(in 22 hours)
Sep-24 @ 12:00 to Sep-25 @ 12:00
SPTU 241100Z 2412/2512 VRB02KT 9999 FEW025 TX33/2419Z TN18/2511Z
Wind Visibility Clouds
Variable at 2 knots 10,000+ meters
  • Few at 2,500' AGL
Temporary Sep-24 @ 18:00 to Sep-24 @ 21:00
TEMPO 2418/2421 BKN060
Clouds
  • Broken at 6,000' AGL
SPTU 241100Z 2412/2512 VRB02KT 9999 FEW025 TX33/2419Z TN18/2511Z TEMPO 2418/2421 BKN060
Issued Sep-24 @ 11:00 UTC
(3 hours ago)
Valid From Sep-24 @ 12:00 UTC
(2 hours ago)
Valid To Sep-25 @ 12:00 UTC
(in 22 hours)
Sep-24 @ 12:00 - Sep-25 @ 12:00
Wind Visibility
Variable at 2 knots 10,000+ meters
Clouds
  • Few at 2,500' AGL
Temporary Sep-24 @ 18:00 - Sep-24 @ 21:00
Clouds
  • Broken at 6,000' AGL